Oneonta, NY (13820)

8:06 PM EDT on October 24, 2014 (GMT -0400)
RainWise at Oneonta, NY 13820 | Change Station
CLOSE
Current Station
Personal Weather Station
Location: Oneonta, NY
Elevation: 1260 ft
Nearby Weather Stations

Elev 1260 ft 42.46 °N, 75.06 °W | Updated 3 seconds ago

Partly Cloudy
Partly Cloudy
46.0 °F
Feels Like 46 °F
N
0.0
Wind Variable Wind from North
Gusts 2.0 mph

Today
High -- | Low -- °F
--% Chance of Precip.
Yesterday
High -- | Low -- °F
Precip. -- in
7:23 AM 6:04 PM
New Moon, 1% visible
Pressure 29.91 in
Visibility 10.0 miles
Clouds Clear
Windchill 46 °F
Dew Point 46 °F
Humidity 100%
Rainfall 0.05 in
Snow Depth Not available.
UV 0 out of 12
Pollen .30 out of 12
Ozone Good
PM2.5 Good
Flu Activity Sporadic
METAR KBGM 242353Z 31005KT 10SM CLR 09/03 A2989 RMK AO2 SLP127 T00940028 10144 20094 51005

More Conditions Fewer Conditions

Pressure 29.91 in
Visibility 10.0 miles
Clouds Clear
Windchill 46 °F
Dew Point 46 °F
Humidity 100%
Rainfall 0.05 in
Snow Depth Not available.
UV 0 out of 12
Pollen .30 out of 12
Ozone Good
PM2.5 Good
Flu Activity Sporadic
METAR KBGM 242353Z 31005KT 10SM CLR 09/03 A2989 RMK AO2 SLP127 T00940028 10144 20094 51005

More Conditions Fewer Conditions

10-Day Weather Forecast

Almanac

Astronomy

Oct. 24, 2014 Rise Set
Actual Time 7:23 AM EDT 6:04 PM EDT
Civil Twilight 6:55 AM EDT 6:33 PM EDT
Nautical Twilight 6:22 AM EDT 7:05 PM EDT
Astronomical Twilight 5:49 AM EDT 7:38 PM EDT
Moon 8:01 AM EDT (10/24) 6:41 PM EDT (10/24)
Length of Visible Light 11h 37m
Length of Day
10h 40m
Tomorrow will be 2m 40s shorter.
New Moon, 1% of the Moon is Illuminated
Today
New Moon
Oct 30
First Quarter
Nov 6
Full
Nov 14
Last Quarter
Nov 22
New

Today's Extremes

State Highs State Lows

Community

WunderPhotos

Upload Photos

1,764,721 photos uploaded!

Nearby

Air Quality

  Air Quality AQ Index Pollutant
Yesterday Good
OZONE
Yesterday Good
PM2.5
Current Good
OZONE
Current Good
PM2.5
Friday Good
PM2.5
Saturday Good
PM2.5
Sunday Good
PM2.5
Monday Good
PM2.5

Snow Depth

Station Depth Elevation
No new snow has been reported.

Earthquake Activity

City Distance Mag. Time & Date
No recent earthquake activity has been reported nearby.
Minimum magnitude displayed is 2.5.

Coastal Water Temperatures

Place Temperature
No Stations Reporting

Nearby Weather Stations